createdAt,value
2024-02-07T00:01:59.574Z,99642.13
2024-02-07T00:04:26.865Z,99640.19
2024-02-07T00:06:53.878Z,99633.22
2024-02-07T00:09:20.693Z,99635.72
2024-02-07T00:11:48.163Z,99638.25
2024-02-07T00:14:15.012Z,99627.78
2024-02-07T00:16:41.987Z,99616.50
2024-02-07T00:19:09.262Z,99609.25
2024-02-07T00:21:36.268Z,99608.28
2024-02-07T00:24:03.058Z,99609.13
2024-02-07T00:26:29.803Z,99598.53
2024-02-07T00:28:56.592Z,99593.94
2024-02-07T00:31:23.712Z,99596.44
2024-02-07T00:33:50.577Z,99594.06
2024-02-07T00:36:18.370Z,99599.25
2024-02-07T00:38:45.290Z,99588.66
2024-02-07T00:41:25.384Z,99591.69
2024-02-07T00:43:54.151Z,99584.31
2024-02-07T00:46:21.520Z,99585.03
2024-02-07T00:48:48.431Z,99583.28
2024-02-07T00:51:15.218Z,99568.69
2024-02-07T00:53:41.987Z,99566.75
2024-02-07T00:56:08.675Z,99564.22
2024-02-07T00:58:35.624Z,99564.94
2024-02-07T01:01:02.548Z,99564.66
2024-02-07T01:03:29.360Z,99551.44
2024-02-07T01:05:56.218Z,99544.34
2024-02-07T01:08:23.678Z,99538.63
2024-02-07T01:10:50.497Z,99538.78
2024-02-07T01:13:17.551Z,99541.44
2024-02-07T01:15:44.594Z,99539.88
2024-02-07T01:18:11.545Z,99541.44
2024-02-07T01:20:38.420Z,99537.50
2024-02-07T01:23:05.240Z,99531.66
2024-02-07T01:25:32.037Z,99530.84
2024-02-07T01:27:58.816Z,99528.91
2024-02-07T01:30:25.607Z,99525.25
2024-02-07T01:32:52.504Z,99515.91
2024-02-07T01:35:19.347Z,99527.91
2024-02-07T01:37:47.334Z,99517.31
2024-02-07T01:40:14.766Z,99524.44
2024-02-07T01:42:41.954Z,99525.38
2024-02-07T01:45:33.426Z,99512.41
2024-02-07T01:48:00.463Z,99503.25
2024-02-07T01:50:27.722Z,99502.13
2024-02-07T01:52:57.062Z,99495.03
2024-02-07T01:55:26.247Z,99474.66
2024-02-07T01:57:53.793Z,99461.44
2024-02-07T02:00:20.551Z,99449.56
2024-02-07T02:02:49.714Z,99443.16
2024-02-07T02:05:16.640Z,99433.28
2024-02-07T02:07:43.920Z,99451.09
2024-02-07T02:10:14.417Z,99444.59
2024-02-07T02:12:42.284Z,99459.88
2024-02-07T02:15:09.509Z,99443.16
2024-02-07T02:17:36.964Z,99451.81
2024-02-07T02:20:06.205Z,99458.66
2024-02-07T02:22:48.153Z,99442.06
2024-02-07T02:25:30.825Z,99440.25
2024-02-07T02:28:03.440Z,99444.81
2024-02-07T02:30:42.242Z,99429.81
2024-02-07T02:33:11.386Z,99417.38
2024-02-07T02:35:40.365Z,99422.53
2024-02-07T02:38:07.213Z,99402.19
2024-02-07T02:40:34.132Z,99406.63
2024-02-07T02:43:00.925Z,99412.38
2024-02-07T02:45:27.865Z,99403.75
2024-02-07T02:47:55.502Z,99403.59
2024-02-07T02:50:27.123Z,99406.94
2024-02-07T02:52:55.748Z,99406.09
2024-02-07T02:55:22.779Z,99414.06
2024-02-07T02:57:49.638Z,99402.06
2024-02-07T03:00:17.609Z,99406.94
2024-02-07T03:02:45.034Z,99408.88
2024-02-07T03:05:31.907Z,99387.16
2024-02-07T03:08:17.917Z,99394.69
2024-02-07T03:10:45.016Z,99387.69
2024-02-07T03:13:13.607Z,99383.22
2024-02-07T03:15:40.541Z,99383.81
2024-02-07T03:18:07.693Z,99382.00
2024-02-07T03:20:34.629Z,99374.03
2024-02-07T03:23:01.346Z,99373.06
2024-02-07T03:25:28.993Z,99375.88
2024-02-07T03:27:56.026Z,99379.47
2024-02-07T03:30:23.288Z,99377.41
2024-02-07T03:32:50.604Z,99371.13
2024-02-07T03:35:17.562Z,99368.63
2024-02-07T03:37:44.560Z,99374.59
2024-02-07T03:40:16.193Z,99379.34
2024-02-07T03:42:43.613Z,99366.66
2024-02-07T03:45:16.118Z,99351.03
2024-02-07T03:47:43.666Z,99362.47
2024-02-07T03:50:16.450Z,99347.00
2024-02-07T03:52:49.774Z,99348.38
2024-02-07T03:55:16.603Z,99336.84
2024-02-07T03:57:46.214Z,99332.22
2024-02-07T04:00:16.714Z,99327.78
2024-02-07T04:02:47.284Z,99329.72
2024-02-07T04:05:14.379Z,99327.91
2024-02-07T04:07:41.649Z,99307.69
2024-02-07T04:10:12.732Z,99318.41
2024-02-07T04:12:40.910Z,99318.13
2024-02-07T04:15:27.047Z,99304.06
2024-02-07T04:18:16.574Z,99305.03
2024-02-07T04:21:09.816Z,99307.13
2024-02-07T04:23:55.679Z,99308.53
2024-02-07T04:26:46.068Z,99316.47
2024-02-07T04:29:31.573Z,99302.25
2024-02-07T04:32:23.642Z,99295.69
2024-02-07T04:35:08.842Z,99297.50
2024-02-07T04:37:54.480Z,99292.91
2024-02-07T04:40:39.971Z,99285.94
2024-02-07T04:43:25.462Z,99286.75
2024-02-07T04:46:12.089Z,99282.16
2024-02-07T04:48:57.526Z,99275.03
2024-02-07T04:51:42.976Z,99281.06
2024-02-07T04:54:28.366Z,99271.16
2024-02-07T04:57:13.946Z,99268.63
2024-02-07T04:59:59.208Z,99240.47
2024-02-07T05:02:44.349Z,99228.50
2024-02-07T05:05:29.702Z,99240.19
2024-02-07T05:08:15.153Z,99255.25
2024-02-07T05:11:00.674Z,99262.38
2024-02-07T05:13:45.937Z,99260.44
2024-02-07T05:16:14.002Z,99250.78
2024-02-07T05:18:41.223Z,99246.19
2024-02-07T05:21:14.652Z,99237.84
2024-02-07T05:23:41.970Z,99244.78
2024-02-07T05:26:09.609Z,99243.53
2024-02-07T05:28:38.323Z,99227.78
2024-02-07T05:31:05.443Z,99220.69
2024-02-07T05:33:33.103Z,99225.69
2024-02-07T05:36:00.322Z,99222.06
2024-02-07T05:38:27.282Z,99214.94
2024-02-07T05:40:54.103Z,99193.75
2024-02-07T05:43:20.889Z,99210.63
2024-02-07T05:45:47.640Z,99210.78
2024-02-07T05:48:14.561Z,99172.56
2024-02-07T05:50:41.299Z,99183.75
2024-02-07T05:53:07.997Z,99189.44
2024-02-07T05:55:34.824Z,99198.09
2024-02-07T05:58:01.601Z,99189.16
2024-02-07T06:00:28.516Z,99190.84
2024-02-07T06:02:55.886Z,99182.59
2024-02-07T06:05:23.316Z,99192.38
2024-02-07T06:07:50.296Z,99182.59
2024-02-07T06:10:20.920Z,99197.38
2024-02-07T06:12:47.929Z,99162.66
2024-02-07T06:15:15.549Z,99186.50
2024-02-07T06:17:42.728Z,99179.13
2024-02-07T06:20:10.510Z,99187.91
2024-02-07T06:22:38.941Z,99181.06
2024-02-07T06:25:06.057Z,99195.97
2024-02-07T06:27:32.835Z,99179.78
2024-02-07T06:29:59.647Z,99179.94
2024-02-07T06:32:26.762Z,99170.88
2024-02-07T06:34:53.977Z,99183.56
2024-02-07T06:37:20.823Z,99193.03
2024-02-07T06:39:47.709Z,99187.72
2024-02-07T06:42:14.411Z,99168.22
2024-02-07T06:44:41.212Z,99162.22
2024-02-07T06:47:08.012Z,99166.84
2024-02-07T06:49:37.786Z,99167.41
2024-02-07T06:52:05.552Z,99152.16
2024-02-07T06:54:32.550Z,99160.28
2024-02-07T06:56:59.429Z,99157.34
2024-02-07T06:59:26.220Z,99169.59
2024-02-07T07:01:53.352Z,99167.94
2024-02-07T07:04:20.280Z,99145.59
2024-02-07T07:06:47.188Z,99155.09
2024-02-07T07:09:13.959Z,99153.84
2024-02-07T07:11:40.828Z,99150.09
2024-02-07T07:14:08.336Z,99136.66
2024-02-07T07:16:35.097Z,99148.38
2024-02-07T07:19:03.105Z,99165.16
2024-02-07T07:21:31.862Z,99149.91
2024-02-07T07:23:59.536Z,99147.25
2024-02-07T07:26:26.384Z,99141.84
2024-02-07T07:28:55.429Z,99156.06
2024-02-07T07:31:22.354Z,99154.78
2024-02-07T07:33:49.130Z,99154.78
2024-02-07T07:36:19.164Z,99158.44
2024-02-07T07:38:45.946Z,99142.38
2024-02-07T07:41:12.749Z,99160.78
2024-02-07T07:43:39.519Z,99149.50
2024-02-07T07:46:06.422Z,99155.34
2024-02-07T07:48:33.576Z,99155.34
2024-02-07T07:51:00.511Z,99149.34
2024-02-07T07:53:27.277Z,99154.34
2024-02-07T07:55:54.115Z,99148.75
2024-02-07T07:58:25.236Z,99140.72
2024-02-07T08:00:55.729Z,99146.09
2024-02-07T08:03:22.712Z,99150.06
2024-02-07T08:05:49.627Z,99135.81
2024-02-07T08:08:16.799Z,99112.66
2024-02-07T08:10:45.753Z,99134.94
2024-02-07T08:13:12.470Z,99127.81
2024-02-07T08:15:39.338Z,99130.91
2024-02-07T08:18:06.343Z,99128.94
2024-02-07T08:20:33.279Z,99138.97
2024-02-07T08:23:00.109Z,99122.13
2024-02-07T08:25:27.004Z,99141.38
2024-02-07T08:27:53.829Z,99126.13
2024-02-07T08:30:22.274Z,99127.13
2024-02-07T08:32:50.564Z,99124.59
2024-02-07T08:35:17.563Z,99114.88
2024-02-07T08:37:44.949Z,99120.16
2024-02-07T08:40:12.011Z,99123.34
2024-02-07T08:42:39.062Z,99146.50
2024-02-07T08:45:06.389Z,99132.00
2024-02-07T08:47:33.226Z,99135.34
2024-02-07T08:49:59.992Z,99114.81
2024-02-07T08:52:27.023Z,99116.22
2024-02-07T08:54:53.761Z,99116.63
2024-02-07T08:57:20.706Z,99109.53
2024-02-07T08:59:47.507Z,99113.81
2024-02-07T09:02:14.466Z,99115.47
2024-02-07T09:04:41.381Z,99113.38
2024-02-07T09:07:08.219Z,99112.56
2024-02-07T09:09:34.925Z,99099.44
2024-02-07T09:12:01.601Z,99101.69
2024-02-07T09:14:28.314Z,99097.63
2024-02-07T09:16:55.232Z,99109.66
2024-02-07T09:19:22.083Z,99084.13
2024-02-07T09:21:48.924Z,99105.03
2024-02-07T09:24:15.660Z,99098.22
2024-02-07T09:26:42.418Z,99106.69
2024-02-07T09:29:09.411Z,99104.88
2024-02-07T09:31:36.473Z,99117.88
2024-02-07T09:34:04.170Z,99103.75
2024-02-07T09:36:31.579Z,99099.13
2024-02-07T09:38:59.316Z,99102.47
2024-02-07T09:41:26.503Z,99093.53
2024-02-07T09:43:56.070Z,99074.59
2024-02-07T09:46:26.896Z,99095.28
2024-02-07T09:48:55.739Z,99092.00
2024-02-07T09:51:22.739Z,99087.00
2024-02-07T09:53:50.029Z,99089.34
2024-02-07T09:56:17.392Z,99099.13
2024-02-07T09:58:44.556Z,99095.78
2024-02-07T10:01:14.361Z,99084.66
2024-02-07T10:03:44.001Z,99101.69
2024-02-07T10:06:13.158Z,99086.09
2024-02-07T10:08:41.047Z,99106.56
2024-02-07T10:11:08.950Z,99096.09
2024-02-07T10:13:35.893Z,99092.47
2024-02-07T10:16:06.660Z,99094.00
2024-02-07T10:18:34.065Z,99093.44
2024-02-07T10:21:01.866Z,99090.78
2024-02-07T10:23:29.114Z,99088.97
2024-02-07T10:25:57.011Z,99088.84
2024-02-07T10:28:27.648Z,99088.59
2024-02-07T10:31:02.817Z,99092.91
2024-02-07T10:33:49.559Z,99071.28
2024-02-07T10:36:16.494Z,99094.66
2024-02-07T10:38:43.202Z,99087.00
2024-02-07T10:41:10.633Z,99094.53
2024-02-07T10:43:38.157Z,99099.13
2024-02-07T10:46:14.304Z,99062.84
2024-02-07T10:48:42.418Z,99069.00
2024-02-07T10:51:09.304Z,99069.53
2024-02-07T10:53:37.107Z,99073.84
2024-02-07T10:56:07.830Z,99072.56
2024-02-07T10:58:34.962Z,99064.09
2024-02-07T11:01:03.141Z,99055.75
2024-02-07T11:03:33.216Z,99055.97
2024-02-07T11:06:00.959Z,99059.44
2024-02-07T11:08:28.854Z,99046.19
2024-02-07T11:10:58.012Z,99034.75
2024-02-07T11:13:25.409Z,99036.94
2024-02-07T11:15:52.207Z,99049.16
2024-02-07T11:18:19.101Z,99020.16
2024-02-07T11:20:46.707Z,99029.63
2024-02-07T11:23:18.518Z,99034.94
2024-02-07T11:25:46.589Z,99032.94
2024-02-07T11:28:13.502Z,99020.53
2024-02-07T11:30:40.933Z,99015.25
2024-02-07T11:33:10.313Z,99000.97
2024-02-07T11:35:37.600Z,99009.75
2024-02-07T11:38:04.780Z,99007.09
2024-02-07T11:40:39.502Z,99018.03
2024-02-07T11:43:08.800Z,99019.69
2024-02-07T11:45:43.899Z,98990.31
2024-02-07T11:48:20.925Z,98997.81
2024-02-07T11:50:48.332Z,98998.31
2024-02-07T11:53:27.923Z,98986.06
2024-02-07T11:55:54.750Z,98998.00
2024-02-07T11:58:23.965Z,98996.69
2024-02-07T12:00:50.815Z,98992.19
2024-02-07T12:03:19.246Z,98995.81
2024-02-07T12:05:47.296Z,98984.00
2024-02-07T12:08:15.406Z,98988.16
2024-02-07T12:10:42.528Z,98988.34
2024-02-07T12:13:11.324Z,98993.66
2024-02-07T12:15:38.346Z,98980.06
2024-02-07T12:18:08.434Z,98990.81
2024-02-07T12:20:35.498Z,98971.56
2024-02-07T12:23:03.123Z,98974.91
2024-02-07T12:25:30.541Z,98966.81
2024-02-07T12:28:08.980Z,98977.50
2024-02-07T12:30:35.905Z,98976.75
2024-02-07T12:33:03.172Z,98968.09
2024-02-07T12:35:29.944Z,98970.22
2024-02-07T12:38:00.553Z,98974.09
2024-02-07T12:40:31.100Z,98969.91
2024-02-07T12:42:58.830Z,98963.94
2024-02-07T12:45:25.652Z,98929.91
2024-02-07T12:47:52.898Z,98946.38
2024-02-07T12:50:21.780Z,98941.00
2024-02-07T12:52:49.087Z,98950.00
2024-02-07T12:55:16.067Z,98941.75
2024-02-07T12:57:44.709Z,98943.72
2024-02-07T13:00:15.151Z,98946.19
2024-02-07T13:02:48.699Z,98943.09
2024-02-07T13:05:16.542Z,98942.28
2024-02-07T13:07:43.802Z,98943.28
2024-02-07T13:10:10.721Z,98928.34
2024-02-07T13:12:39.308Z,98930.16
2024-02-07T13:15:06.915Z,98938.78
2024-02-07T13:17:37.277Z,98918.56
2024-02-07T13:20:04.523Z,98937.78
2024-02-07T13:22:31.693Z,98927.88
2024-02-07T13:25:01.347Z,98916.59
2024-02-07T13:27:28.322Z,98922.44
2024-02-07T13:29:55.026Z,98922.56
2024-02-07T13:32:23.712Z,98916.44
2024-02-07T13:34:50.704Z,98912.09
2024-02-07T13:37:17.818Z,98919.09
2024-02-07T13:39:44.536Z,98911.16
2024-02-07T13:42:11.317Z,98919.41
2024-02-07T13:44:38.048Z,98913.41
2024-02-07T13:47:05.008Z,98908.63
2024-02-07T13:49:32.021Z,98906.81
2024-02-07T13:52:00.420Z,98911.47
2024-02-07T13:54:27.212Z,98889.19
2024-02-07T13:56:53.962Z,98895.19
2024-02-07T13:59:20.711Z,98886.09
2024-02-07T14:01:47.542Z,98902.28
2024-02-07T14:04:14.300Z,98898.19
2024-02-07T14:06:41.112Z,98901.69
2024-02-07T14:09:09.103Z,98896.69
2024-02-07T14:11:41.944Z,98881.06
2024-02-07T14:14:09.522Z,98887.41
2024-02-07T14:16:36.868Z,98883.25
2024-02-07T14:19:03.634Z,98882.44
2024-02-07T14:21:30.353Z,98874.16
2024-02-07T14:23:57.086Z,98882.13
2024-02-07T14:26:23.870Z,98882.94
2024-02-07T14:28:50.689Z,98870.53
2024-02-07T14:31:17.500Z,98870.22
2024-02-07T14:33:44.424Z,98877.34
2024-02-07T14:36:11.221Z,98860.59
2024-02-07T14:38:38.023Z,98860.91
2024-02-07T14:41:04.989Z,98873.84
2024-02-07T14:43:31.944Z,98868.88
2024-02-07T14:45:58.797Z,98867.03
2024-02-07T14:48:25.982Z,98851.00
2024-02-07T14:50:53.102Z,98849.47
2024-02-07T14:53:21.391Z,98844.69
2024-02-07T14:55:48.324Z,98852.34
2024-02-07T14:58:15.105Z,98854.31
2024-02-07T15:00:41.944Z,98856.28
2024-02-07T15:03:08.902Z,98854.63
2024-02-07T15:05:35.845Z,98852.59
2024-02-07T15:08:02.982Z,98848.66
2024-02-07T15:10:29.921Z,98844.31
2024-02-07T15:12:56.754Z,98850.75
2024-02-07T15:15:23.457Z,98856.59
2024-02-07T15:17:50.473Z,98848.47
2024-02-07T15:20:17.488Z,98851.00
2024-02-07T15:22:44.320Z,98848.34
2024-02-07T15:25:11.235Z,98843.94
2024-02-07T15:27:41.961Z,98848.78
2024-02-07T15:30:12.141Z,98844.31
2024-02-07T15:32:39.410Z,98844.50
2024-02-07T15:35:08.928Z,98833.06
2024-02-07T15:37:36.135Z,98843.50
2024-02-07T15:40:03.235Z,98837.03
2024-02-07T15:42:29.992Z,98836.09
2024-02-07T15:44:56.731Z,98832.75
2024-02-07T15:47:23.716Z,98831.91
2024-02-07T15:49:50.637Z,98843.19
2024-02-07T15:52:17.762Z,98829.03
2024-02-07T15:54:44.549Z,98831.91
2024-02-07T15:57:11.313Z,98829.28
2024-02-07T15:59:38.068Z,98834.56
2024-02-07T16:02:05.169Z,98827.59
2024-02-07T16:04:32.154Z,98824.75
2024-02-07T16:06:59.648Z,98833.22
2024-02-07T16:09:26.608Z,98826.06
2024-02-07T16:11:53.393Z,98833.88
2024-02-07T16:14:22.246Z,98827.75
2024-02-07T16:16:49.082Z,98811.63
2024-02-07T16:19:15.962Z,98822.59
2024-02-07T16:21:42.733Z,98816.47
2024-02-07T16:24:09.891Z,98805.19
2024-02-07T16:26:36.738Z,98814.66
2024-02-07T16:29:03.767Z,98822.59
2024-02-07T16:31:30.828Z,98803.22
2024-02-07T16:33:57.776Z,98804.03
2024-02-07T16:36:24.960Z,98798.88
2024-02-07T16:38:51.743Z,98806.69
2024-02-07T16:41:18.760Z,98809.81
2024-02-07T16:43:48.828Z,98803.53
2024-02-07T16:46:15.896Z,98802.53
2024-02-07T16:48:42.741Z,98802.53
2024-02-07T16:51:09.642Z,98792.94
2024-02-07T16:53:36.829Z,98790.28
2024-02-07T16:56:03.839Z,98798.06
2024-02-07T16:58:32.718Z,98794.44
2024-02-07T17:00:59.785Z,98794.59
2024-02-07T17:03:26.581Z,98793.75
2024-02-07T17:05:53.545Z,98796.41
2024-02-07T17:08:20.900Z,98793.91
2024-02-07T17:10:47.960Z,98796.56
2024-02-07T17:13:20.791Z,98801.53
2024-02-07T17:15:48.684Z,98800.72
2024-02-07T17:18:18.597Z,98795.72
2024-02-07T17:20:48.405Z,98796.88
2024-02-07T17:23:15.197Z,98793.06
2024-02-07T17:25:42.046Z,98796.56
2024-02-07T17:28:08.860Z,98797.25
2024-02-07T17:30:37.461Z,98795.59
2024-02-07T17:33:05.199Z,98799.06
2024-02-07T17:35:32.293Z,98797.25
2024-02-07T17:37:59.187Z,98797.25
2024-02-07T17:40:26.136Z,98794.44
2024-02-07T17:42:53.217Z,98777.69
2024-02-07T17:45:20.422Z,98785.63
2024-02-07T17:47:48.745Z,98793.59
2024-02-07T17:50:18.921Z,98781.34
2024-02-07T17:53:02.522Z,98788.66
2024-02-07T17:55:42.663Z,98792.16
2024-02-07T17:58:15.613Z,98783.66
2024-02-07T18:01:01.392Z,98777.91
2024-02-07T18:03:28.209Z,98783.84
2024-02-07T18:05:54.994Z,98778.69
2024-02-07T18:08:21.946Z,98778.53
2024-02-07T18:10:51.868Z,98773.22
2024-02-07T18:13:18.763Z,98776.72
2024-02-07T18:15:45.615Z,98773.22
2024-02-07T18:18:12.427Z,98776.84
2024-02-07T18:20:39.521Z,98769.91
2024-02-07T18:23:06.708Z,98767.94
2024-02-07T18:25:33.830Z,98766.25
2024-02-07T18:28:00.584Z,98774.06
2024-02-07T18:30:27.467Z,98766.09
2024-02-07T18:32:54.628Z,98763.47
2024-02-07T18:35:23.365Z,98766.94
2024-02-07T18:37:50.676Z,98766.09
2024-02-07T18:40:17.604Z,98773.06
2024-02-07T18:42:44.383Z,98763.47
2024-02-07T18:45:12.606Z,98755.31
2024-02-07T18:47:39.638Z,98758.84
2024-02-07T18:50:07.311Z,98760.94
2024-02-07T18:52:39.072Z,98753.69
2024-02-07T18:55:06.787Z,98756.31
2024-02-07T18:57:38.626Z,98757.97
2024-02-07T19:00:10.182Z,98753.00
2024-02-07T19:02:37.186Z,98744.22
2024-02-07T19:05:05.757Z,98739.75
2024-02-07T19:07:32.697Z,98750.19
2024-02-07T19:09:59.834Z,98747.56
2024-02-07T19:12:26.767Z,98744.91
2024-02-07T19:14:53.641Z,98753.69
2024-02-07T19:17:20.468Z,98733.47
2024-02-07T19:19:47.663Z,98738.09
2024-02-07T19:22:14.448Z,98730.97
2024-02-07T19:24:42.976Z,98728.31
2024-02-07T19:27:10.106Z,98729.97
2024-02-07T19:29:37.430Z,98726.81
2024-02-07T19:32:05.323Z,98724.16
2024-02-07T19:34:32.458Z,98736.25
2024-02-07T19:36:59.422Z,98732.94
2024-02-07T19:39:26.469Z,98726.50
2024-02-07T19:41:53.696Z,98727.50
2024-02-07T19:44:20.927Z,98723.00
2024-02-07T19:46:47.843Z,98720.22
2024-02-07T19:49:17.385Z,98729.97
2024-02-07T19:51:44.255Z,98734.28
2024-02-07T19:54:10.984Z,98729.13
2024-02-07T19:56:37.743Z,98724.66
2024-02-07T19:59:04.620Z,98725.81
2024-02-07T20:01:31.502Z,98733.75
2024-02-07T20:03:58.332Z,98735.44
2024-02-07T20:06:25.272Z,98735.25
2024-02-07T20:08:52.076Z,98731.78
2024-02-07T20:11:18.826Z,98729.31
2024-02-07T20:13:45.718Z,98731.97
2024-02-07T20:16:12.472Z,98730.13
2024-02-07T20:18:39.465Z,98717.84
2024-02-07T20:21:06.243Z,98724.00
2024-02-07T20:23:34.535Z,98727.63
2024-02-07T20:26:05.516Z,98717.03
2024-02-07T20:28:34.744Z,98720.50
2024-02-07T20:31:01.799Z,98720.50
2024-02-07T20:33:28.575Z,98719.38
2024-02-07T20:35:55.421Z,98720.22
2024-02-07T20:38:22.248Z,98713.22
2024-02-07T20:40:49.299Z,98717.56
2024-02-07T20:43:16.055Z,98720.38
2024-02-07T20:45:42.813Z,98716.06
2024-02-07T20:48:09.739Z,98705.94
2024-02-07T20:50:37.430Z,98700.94
2024-02-07T20:53:05.830Z,98711.06
2024-02-07T20:55:32.780Z,98703.28
2024-02-07T20:57:59.503Z,98708.41
2024-02-07T21:00:27.654Z,98703.09
2024-02-07T21:02:56.984Z,98707.44
2024-02-07T21:05:23.783Z,98703.78
2024-02-07T21:07:51.236Z,98699.47
2024-02-07T21:10:18.097Z,98696.47
2024-02-07T21:12:44.881Z,98697.97
2024-02-07T21:15:11.778Z,98703.94
2024-02-07T21:17:41.036Z,98698.47
2024-02-07T21:20:10.030Z,98694.84
2024-02-07T21:22:37.010Z,98692.34
2024-02-07T21:25:04.186Z,98687.06
2024-02-07T21:27:30.909Z,98687.06
2024-02-07T21:29:57.782Z,98677.13
2024-02-07T21:32:24.609Z,98669.50
2024-02-07T21:34:51.764Z,98661.38
2024-02-07T21:37:19.310Z,98663.03
2024-02-07T21:39:46.187Z,98678.09
2024-02-07T21:42:12.883Z,98675.28
2024-02-07T21:44:40.182Z,98677.13
2024-02-07T21:47:07.948Z,98674.63
2024-02-07T21:49:34.750Z,98664.66
2024-02-07T21:52:02.005Z,98670.78
2024-02-07T21:54:28.864Z,98660.03
2024-02-07T21:56:55.560Z,98664.34
2024-02-07T21:59:22.310Z,98661.38
2024-02-07T22:01:49.100Z,98660.53
2024-02-07T22:04:15.927Z,98657.06
2024-02-07T22:06:44.004Z,98664.84
2024-02-07T22:09:10.944Z,98666.00
2024-02-07T22:11:37.845Z,98658.34
2024-02-07T22:14:04.829Z,98660.69
2024-02-07T22:16:32.447Z,98663.66
2024-02-07T22:18:59.132Z,98661.53
2024-02-07T22:21:26.150Z,98657.00
2024-02-07T22:23:52.867Z,98654.06
2024-02-07T22:26:19.636Z,98660.03
2024-02-07T22:28:46.530Z,98652.22
2024-02-07T22:31:23.341Z,98651.56
2024-02-07T22:33:51.132Z,98639.81
2024-02-07T22:36:18.247Z,98651.09
2024-02-07T22:38:44.974Z,98644.13
2024-02-07T22:41:12.337Z,98646.03
2024-02-07T22:43:39.313Z,98635.50
2024-02-07T22:46:06.181Z,98645.09
2024-02-07T22:48:33.222Z,98643.28
2024-02-07T22:51:00.187Z,98637.97
2024-02-07T22:53:27.550Z,98650.06
2024-02-07T22:55:54.581Z,98644.06
2024-02-07T22:58:21.805Z,98641.78
2024-02-07T23:00:51.018Z,98642.78
2024-02-07T23:03:22.274Z,98646.13
2024-02-07T23:05:49.727Z,98645.94
2024-02-07T23:08:16.491Z,98645.94
2024-02-07T23:10:45.925Z,98649.44
2024-02-07T23:13:13.199Z,98646.47
2024-02-07T23:15:40.187Z,98649.59
2024-02-07T23:18:07.946Z,98643.97
2024-02-07T23:20:34.817Z,98637.69
2024-02-07T23:23:01.614Z,98642.31
2024-02-07T23:25:28.438Z,98641.16
2024-02-07T23:27:55.467Z,98643.00
2024-02-07T23:30:22.161Z,98634.50
2024-02-07T23:32:49.043Z,98646.47
2024-02-07T23:35:15.877Z,98639.84
2024-02-07T23:37:42.712Z,98636.19
2024-02-07T23:40:09.946Z,98646.47
2024-02-07T23:42:37.494Z,98650.06
2024-02-07T23:45:04.694Z,98647.63
2024-02-07T23:47:31.541Z,98639.34
2024-02-07T23:49:58.289Z,98642.81
2024-02-07T23:52:25.304Z,98640.16
2024-02-07T23:54:52.161Z,98640.97
2024-02-07T23:57:18.893Z,98641.16
2024-02-07T23:59:45.574Z,98638.34
